createdAt,value
2022-09-03T00:00:09.565Z,3.00
2022-09-03T00:02:43.822Z,2.88
2022-09-03T00:05:19.718Z,3.08
2022-09-03T00:07:55.703Z,2.92
2022-09-03T00:10:35.815Z,2.58
2022-09-03T00:13:06.290Z,3.33
2022-09-03T00:15:36.305Z,3.10
2022-09-03T00:18:08.327Z,2.78
2022-09-03T00:20:42.751Z,3.15
2022-09-03T00:23:15.757Z,2.90
2022-09-03T00:25:50.235Z,3.05
2022-09-03T00:28:20.858Z,3.35
2022-09-03T00:30:55.357Z,3.15
2022-09-03T00:33:27.628Z,2.63
2022-09-03T00:36:09.015Z,3.10
2022-09-03T00:38:38.797Z,2.90
2022-09-03T00:41:16.791Z,2.80
2022-09-03T00:44:04.104Z,3.00
2022-09-03T00:46:38.244Z,3.15
2022-09-03T00:49:21.611Z,2.70
2022-09-03T00:51:58.321Z,3.15
2022-09-03T00:54:33.258Z,3.30
2022-09-03T00:57:15.012Z,3.25
2022-09-03T00:59:51.029Z,3.17
2022-09-03T01:02:28.747Z,2.97
2022-09-03T01:05:07.042Z,2.92
2022-09-03T01:07:46.194Z,3.50
2022-09-03T01:10:27.470Z,3.30
2022-09-03T01:13:03.231Z,2.92
2022-09-03T01:15:42.195Z,3.10
2022-09-03T01:18:21.288Z,3.30
2022-09-03T01:21:05.665Z,3.60
2022-09-03T01:24:09.070Z,3.65
2022-09-03T01:26:56.729Z,3.20
2022-09-03T01:29:33.741Z,3.00
2022-09-03T01:32:08.049Z,2.90
2022-09-03T01:34:49.341Z,3.42
2022-09-03T01:37:29.167Z,3.00
2022-09-03T01:40:06.965Z,3.13
2022-09-03T01:42:46.001Z,3.30
2022-09-03T01:45:30.797Z,3.40
2022-09-03T01:48:11.927Z,3.13
2022-09-03T01:50:47.672Z,3.47
2022-09-03T01:53:33.533Z,3.40
2022-09-03T01:56:18.997Z,3.25
2022-09-03T01:58:54.999Z,3.10
2022-09-03T02:01:31.341Z,3.20
2022-09-03T02:04:01.047Z,3.15
2022-09-03T02:06:31.931Z,3.55
2022-09-03T02:08:59.808Z,3.25
2022-09-03T02:11:27.938Z,3.10
2022-09-03T02:13:59.851Z,3.00
2022-09-03T02:16:34.360Z,2.88
2022-09-03T02:19:06.786Z,3.38
2022-09-03T02:21:37.656Z,3.33
2022-09-03T02:24:06.973Z,3.53
2022-09-03T02:26:34.907Z,3.30
2022-09-03T02:29:04.539Z,3.05
2022-09-03T02:31:33.924Z,3.42
2022-09-03T02:34:01.776Z,3.05
2022-09-03T02:36:33.128Z,3.13
2022-09-03T02:39:01.019Z,2.95
2022-09-03T02:41:29.317Z,3.20
2022-09-03T02:44:02.515Z,3.08
2022-09-03T02:46:37.099Z,3.42
2022-09-03T02:49:05.325Z,3.40
2022-09-03T02:51:35.283Z,3.72
2022-09-03T02:54:03.249Z,3.13
2022-09-03T02:56:31.205Z,2.97
2022-09-03T02:59:00.210Z,3.30
2022-09-03T03:01:28.194Z,3.10
2022-09-03T03:03:57.928Z,2.88
2022-09-03T03:06:26.253Z,3.17
2022-09-03T03:08:56.160Z,3.25
2022-09-03T03:11:26.339Z,3.05
2022-09-03T03:13:54.415Z,2.90
2022-09-03T03:16:23.152Z,3.03
2022-09-03T03:18:52.725Z,3.30
2022-09-03T03:21:21.925Z,3.40
2022-09-03T03:23:49.902Z,3.28
2022-09-03T03:26:19.646Z,3.13
2022-09-03T03:28:48.887Z,3.40
2022-09-03T03:31:19.050Z,3.05
2022-09-03T03:33:52.130Z,3.55
2022-09-03T03:36:22.125Z,3.08
2022-09-03T03:38:50.075Z,3.45
2022-09-03T03:41:20.109Z,3.30
2022-09-03T03:43:47.968Z,3.30
2022-09-03T03:46:16.191Z,3.00
2022-09-03T03:48:44.157Z,3.20
2022-09-03T03:51:12.079Z,3.60
2022-09-03T03:53:41.570Z,3.22
2022-09-03T03:56:12.165Z,3.40
2022-09-03T03:58:43.000Z,3.35
2022-09-03T04:01:13.293Z,3.17
2022-09-03T04:03:41.664Z,3.60
2022-09-03T04:06:11.221Z,3.50
2022-09-03T04:08:42.605Z,3.58
2022-09-03T04:13:43.934Z,3.65
2022-09-03T04:16:13.653Z,3.20
2022-09-03T04:18:42.585Z,3.75
2022-09-03T04:21:12.804Z,3.10
2022-09-03T04:23:43.222Z,3.30
2022-09-03T04:26:13.459Z,3.58
2022-09-03T04:28:41.993Z,3.90
2022-09-03T04:31:11.663Z,3.10
2022-09-03T04:33:40.636Z,3.40
2022-09-03T04:36:10.190Z,3.88
2022-09-03T04:38:42.028Z,3.88
2022-09-03T04:41:11.510Z,3.67
2022-09-03T04:43:39.699Z,3.85
2022-09-03T04:46:16.226Z,3.30
2022-09-03T04:48:50.247Z,3.67
2022-09-03T04:51:20.989Z,3.88
2022-09-03T04:53:55.596Z,3.65
2022-09-03T04:56:25.529Z,3.20
2022-09-03T04:58:56.689Z,3.28
2022-09-03T05:01:26.475Z,3.33
2022-09-03T05:03:56.232Z,3.10
2022-09-03T05:06:24.618Z,2.85
2022-09-03T05:08:55.542Z,2.95
2022-09-03T05:11:24.311Z,2.75
2022-09-03T05:13:54.419Z,2.78
2022-09-03T05:16:23.553Z,2.70
2022-09-03T05:18:54.024Z,2.60
2022-09-03T05:21:22.745Z,2.63
2022-09-03T05:23:53.268Z,2.90
2022-09-03T05:26:23.025Z,2.40
2022-09-03T05:28:55.077Z,2.50
2022-09-03T05:31:26.360Z,2.40
2022-09-03T05:33:57.788Z,2.40
2022-09-03T05:36:27.767Z,2.72
2022-09-03T05:38:58.430Z,2.67
2022-09-03T05:41:27.439Z,2.42
2022-09-03T05:43:58.710Z,2.60
2022-09-03T05:46:31.403Z,2.90
2022-09-03T05:49:00.387Z,2.42
2022-09-03T05:51:28.704Z,2.80
2022-09-03T05:53:59.269Z,3.00
2022-09-03T05:56:29.583Z,3.22
2022-09-03T05:59:00.473Z,2.70
2022-09-03T06:01:30.873Z,3.42
2022-09-03T06:04:00.679Z,2.90
2022-09-03T06:06:30.956Z,2.70
2022-09-03T06:09:02.446Z,2.90
2022-09-03T06:11:31.097Z,2.85
2022-09-03T06:14:01.332Z,2.97
2022-09-03T06:16:31.744Z,2.80
2022-09-03T06:19:00.669Z,3.00
2022-09-03T06:21:29.053Z,3.03
2022-09-03T06:23:59.936Z,2.78
2022-09-03T06:26:29.899Z,2.63
2022-09-03T06:28:59.866Z,2.83
2022-09-03T06:31:28.232Z,3.03
2022-09-03T06:33:59.612Z,2.90
2022-09-03T06:36:30.228Z,3.20
2022-09-03T06:38:58.808Z,3.08
2022-09-03T06:41:30.761Z,3.10
2022-09-03T06:44:03.343Z,3.17
2022-09-03T06:46:33.448Z,3.13
2022-09-03T06:49:01.402Z,3.47
2022-09-03T06:51:31.249Z,3.08
2022-09-03T06:54:02.099Z,3.50
2022-09-03T06:56:38.895Z,3.60
2022-09-03T06:59:10.065Z,3.13
2022-09-03T07:01:43.656Z,2.90
2022-09-03T07:04:13.548Z,2.97
2022-09-03T07:06:42.868Z,3.13
2022-09-03T07:09:12.535Z,2.88
2022-09-03T07:11:47.447Z,2.80
2022-09-03T07:14:17.025Z,2.65
2022-09-03T07:16:46.008Z,2.40
2022-09-03T07:19:14.384Z,2.60
2022-09-03T07:21:46.786Z,2.33
2022-09-03T07:24:18.140Z,2.55
2022-09-03T07:26:48.734Z,2.60
2022-09-03T07:29:20.178Z,2.25
2022-09-03T07:31:51.343Z,2.45
2022-09-03T07:34:20.376Z,2.47
2022-09-03T07:36:50.910Z,2.80
2022-09-03T07:39:18.928Z,2.50
2022-09-03T07:41:48.390Z,2.38
2022-09-03T07:44:19.443Z,2.30
2022-09-03T07:46:50.903Z,2.70
2022-09-03T07:49:20.255Z,3.00
2022-09-03T07:51:50.692Z,2.55
2022-09-03T07:54:18.727Z,2.40
2022-09-03T07:56:48.007Z,2.65
2022-09-03T07:59:15.962Z,2.47
2022-09-03T08:01:44.216Z,2.63
2022-09-03T08:04:12.343Z,2.50
2022-09-03T08:06:40.846Z,3.03
2022-09-03T08:09:11.327Z,2.40
2022-09-03T08:11:41.493Z,2.28
2022-09-03T08:14:12.959Z,3.10
2022-09-03T08:16:42.806Z,3.10
2022-09-03T08:19:13.395Z,2.97
2022-09-03T08:21:42.571Z,2.45
2022-09-03T08:24:11.516Z,2.90
2022-09-03T08:26:41.860Z,2.90
2022-09-03T08:29:11.238Z,3.10
2022-09-03T08:31:39.662Z,2.80
2022-09-03T08:34:10.422Z,3.13
2022-09-03T08:36:41.293Z,2.80
2022-09-03T08:39:10.869Z,2.78
2022-09-03T08:41:58.595Z,3.30
2022-09-03T08:44:31.347Z,3.33
2022-09-03T08:47:07.103Z,3.63
2022-09-03T08:49:42.725Z,3.30
2022-09-03T08:52:23.754Z,3.10
2022-09-03T08:54:52.991Z,3.22
2022-09-03T08:57:22.769Z,3.13
2022-09-03T08:59:55.856Z,3.42
2022-09-03T09:02:34.303Z,3.50
2022-09-03T09:05:14.142Z,2.92
2022-09-03T09:07:50.371Z,3.30
2022-09-03T09:10:24.408Z,3.05
2022-09-03T09:13:06.734Z,3.63
2022-09-03T09:15:47.404Z,2.78
2022-09-03T09:18:24.501Z,2.47
2022-09-03T09:20:58.836Z,2.75
2022-09-03T09:23:31.502Z,2.70
2022-09-03T09:26:02.476Z,2.45
2022-09-03T09:28:35.414Z,2.65
2022-09-03T09:31:07.645Z,2.58
2022-09-03T09:33:36.028Z,2.60
2022-09-03T09:36:08.456Z,2.67
2022-09-03T09:38:38.681Z,2.55
2022-09-03T09:41:11.702Z,2.53
2022-09-03T09:46:14.425Z,2.38
2022-09-03T09:48:50.048Z,2.20
2022-09-03T09:51:21.594Z,2.03
2022-09-03T09:54:01.206Z,2.30
2022-09-03T09:56:29.515Z,2.38
2022-09-03T09:59:08.484Z,2.47
2022-09-03T10:01:39.758Z,2.00
2022-09-03T10:04:12.998Z,1.90
2022-09-03T10:06:57.171Z,1.88
2022-09-03T10:09:31.432Z,1.92
2022-09-03T10:12:14.390Z,2.00
2022-09-03T10:14:48.781Z,1.42
2022-09-03T10:17:36.693Z,2.00
2022-09-03T10:20:32.049Z,1.80
2022-09-03T10:23:06.305Z,1.70
2022-09-03T10:25:43.743Z,1.90
2022-09-03T10:28:13.488Z,1.70
2022-09-03T10:31:04.430Z,2.03
2022-09-03T10:33:39.422Z,1.67
2022-09-03T10:36:17.073Z,1.70
2022-09-03T10:38:50.316Z,1.90
2022-09-03T10:41:31.447Z,1.70
2022-09-03T10:44:18.840Z,1.70
2022-09-03T10:46:58.886Z,1.55
2022-09-03T10:49:43.612Z,1.50
2022-09-03T10:52:17.150Z,1.70
2022-09-03T10:54:56.280Z,1.80
2022-09-03T10:57:38.116Z,1.33
2022-09-03T11:00:10.124Z,1.70
2022-09-03T11:02:58.904Z,1.60
2022-09-03T11:05:35.325Z,1.50
2022-09-03T11:08:08.477Z,1.92
2022-09-03T11:10:41.501Z,2.15
2022-09-03T11:13:14.244Z,1.83
2022-09-03T11:18:20.102Z,1.70
2022-09-03T11:20:52.306Z,1.80
2022-09-03T11:23:20.947Z,1.63
2022-09-03T11:25:54.248Z,1.40
2022-09-03T11:28:36.403Z,1.50
2022-09-03T11:31:18.027Z,1.63
2022-09-03T11:33:51.343Z,1.35
2022-09-03T11:36:32.098Z,1.60
2022-09-03T11:39:01.365Z,1.33
2022-09-03T11:41:36.196Z,1.63
2022-09-03T11:44:18.179Z,1.58
2022-09-03T11:46:56.032Z,1.35
2022-09-03T11:49:31.032Z,1.70
2022-09-03T11:52:02.891Z,2.35
2022-09-03T11:54:33.951Z,1.40
2022-09-03T11:57:13.215Z,1.50
2022-09-03T11:59:43.196Z,1.40
2022-09-03T12:02:28.142Z,1.52
2022-09-03T12:05:14.865Z,1.40
2022-09-03T12:08:08.915Z,1.33
2022-09-03T12:10:45.939Z,1.30
2022-09-03T12:13:38.318Z,1.30
2022-09-03T12:16:20.254Z,1.40
2022-09-03T12:18:52.865Z,1.70
2022-09-03T12:21:21.328Z,1.40
2022-09-03T12:23:55.542Z,1.33
2022-09-03T12:26:28.259Z,1.58
2022-09-03T12:28:58.215Z,1.50
2022-09-03T12:31:29.867Z,1.70
2022-09-03T12:34:00.225Z,1.30
2022-09-03T12:36:38.399Z,1.60
2022-09-03T12:39:12.841Z,1.80
2022-09-03T12:41:54.058Z,1.50
2022-09-03T12:44:28.173Z,1.25
2022-09-03T12:49:51.596Z,1.40
2022-09-03T12:52:26.096Z,1.50
2022-09-03T12:54:59.069Z,1.40
2022-09-03T12:57:34.654Z,1.20
2022-09-03T13:00:08.070Z,1.50
2022-09-03T13:02:40.324Z,1.30
2022-09-03T13:05:14.289Z,1.30
2022-09-03T13:07:46.274Z,1.15
2022-09-03T13:10:26.239Z,1.20
2022-09-03T13:13:00.353Z,1.40
2022-09-03T13:15:29.863Z,1.50
2022-09-03T13:18:14.585Z,1.15
2022-09-03T13:20:55.576Z,1.30
2022-09-03T13:23:43.807Z,1.27
2022-09-03T13:26:25.984Z,1.30
2022-09-03T13:29:17.226Z,1.48
2022-09-03T13:31:49.059Z,1.40
2022-09-03T13:34:23.298Z,1.38
2022-09-03T13:36:58.281Z,1.30
2022-09-03T13:39:30.733Z,1.50
2022-09-03T13:42:07.237Z,1.40
2022-09-03T13:44:46.143Z,1.40
2022-09-03T13:47:32.310Z,1.50
2022-09-03T13:50:22.509Z,1.40
2022-09-03T13:52:59.342Z,1.50
2022-09-03T13:55:34.714Z,1.40
2022-09-03T13:58:08.915Z,1.38
2022-09-03T14:00:43.894Z,1.35
2022-09-03T14:03:18.150Z,1.45
2022-09-03T14:06:00.956Z,1.60
2022-09-03T14:08:35.391Z,1.40
2022-09-03T14:11:21.002Z,1.70
2022-09-03T14:14:13.106Z,1.85
2022-09-03T14:16:46.142Z,2.97
2022-09-03T14:19:20.725Z,1.77
2022-09-03T14:21:54.423Z,1.65
2022-09-03T14:24:27.998Z,1.70
2022-09-03T14:26:58.305Z,2.20
2022-09-03T14:29:30.579Z,1.83
2022-09-03T14:32:16.375Z,2.00
2022-09-03T14:34:56.849Z,1.73
2022-09-03T14:37:43.096Z,1.90
2022-09-03T14:40:16.370Z,2.50
2022-09-03T14:43:16.699Z,2.38
2022-09-03T14:46:07.238Z,2.97
2022-09-03T14:48:55.942Z,2.78
2022-09-03T14:51:45.850Z,2.25
2022-09-03T14:54:38.031Z,2.58
2022-09-03T14:57:20.202Z,2.35
2022-09-03T15:00:12.101Z,2.72
2022-09-03T15:03:20.417Z,1.85
2022-09-03T15:06:12.347Z,1.73
2022-09-03T15:08:47.646Z,1.30
2022-09-03T15:11:19.537Z,1.33
2022-09-03T15:13:52.573Z,1.50
2022-09-03T15:16:44.362Z,1.40
2022-09-03T15:19:37.258Z,1.58
2022-09-03T15:22:15.158Z,1.58
2022-09-03T15:24:51.781Z,1.50
2022-09-03T15:27:45.531Z,1.67
2022-09-03T15:30:16.509Z,1.95
2022-09-03T15:32:52.071Z,2.13
2022-09-03T15:35:38.091Z,1.67
2022-09-03T15:38:12.107Z,1.90
2022-09-03T15:40:49.996Z,1.60
2022-09-03T15:43:22.701Z,1.63
2022-09-03T15:45:58.302Z,1.75
2022-09-03T15:48:35.147Z,1.70
2022-09-03T15:51:17.202Z,1.75
2022-09-03T15:53:53.311Z,1.60
2022-09-03T15:56:27.944Z,1.88
2022-09-03T15:59:03.170Z,1.70
2022-09-03T16:01:38.146Z,1.83
2022-09-03T16:04:26.400Z,2.10
2022-09-03T16:07:02.020Z,1.77
2022-09-03T16:09:44.641Z,1.80
2022-09-03T16:12:21.724Z,1.90
2022-09-03T16:14:57.302Z,1.58
2022-09-03T16:17:31.400Z,2.00
2022-09-03T16:20:06.176Z,1.90
2022-09-03T16:22:44.152Z,2.03
2022-09-03T16:25:16.841Z,1.90
2022-09-03T16:27:56.296Z,2.00
2022-09-03T16:30:36.412Z,1.50
2022-09-03T16:33:14.861Z,1.80
2022-09-03T16:35:53.488Z,1.50
2022-09-03T16:38:35.068Z,1.80
2022-09-03T16:41:16.689Z,1.50
2022-09-03T16:43:54.231Z,1.88
2022-09-03T16:46:26.824Z,1.65
2022-09-03T16:49:23.250Z,1.60
2022-09-03T16:51:56.785Z,1.80
2022-09-03T16:54:44.524Z,1.77
2022-09-03T16:57:27.577Z,1.70
2022-09-03T17:00:10.141Z,1.77
2022-09-03T17:03:08.484Z,1.70
2022-09-03T17:06:05.930Z,1.58
2022-09-03T17:08:43.957Z,1.60
2022-09-03T17:11:28.370Z,1.42
2022-09-03T17:14:09.770Z,1.48
2022-09-03T17:16:47.502Z,1.70
2022-09-03T17:19:25.702Z,1.35
2022-09-03T17:22:06.923Z,1.73
2022-09-03T17:24:47.757Z,1.30
2022-09-03T17:27:35.695Z,1.77
2022-09-03T17:30:10.538Z,1.50
2022-09-03T17:33:05.043Z,1.58
2022-09-03T17:35:39.017Z,1.38
2022-09-03T17:38:21.749Z,1.55
2022-09-03T17:41:05.757Z,0.98
2022-09-03T17:43:45.836Z,1.30
2022-09-03T17:46:28.627Z,1.40
2022-09-03T17:48:59.888Z,1.33
2022-09-03T17:51:41.145Z,1.20
2022-09-03T17:54:16.267Z,1.70
2022-09-03T17:56:52.174Z,1.50
2022-09-03T17:59:31.995Z,1.45
2022-09-03T18:02:05.543Z,1.40
2022-09-03T18:04:47.132Z,1.40
2022-09-03T18:07:23.963Z,1.23
2022-09-03T18:10:03.046Z,1.70
2022-09-03T18:12:39.345Z,1.30
2022-09-03T18:15:14.291Z,1.17
2022-09-03T18:17:47.624Z,1.45
2022-09-03T18:20:33.824Z,1.35
2022-09-03T18:23:23.917Z,1.48
2022-09-03T18:26:17.989Z,1.50
2022-09-03T18:31:53.228Z,1.60
2022-09-03T18:34:48.573Z,1.45
2022-09-03T18:37:36.924Z,1.73
2022-09-03T18:40:23.740Z,1.48
2022-09-03T18:43:21.242Z,1.13
2022-09-03T18:47:40.960Z,1.20
2022-09-03T18:49:26.887Z,1.45
2022-09-03T18:52:17.304Z,1.40
2022-09-03T18:55:16.259Z,1.38
2022-09-03T18:58:14.377Z,1.35
2022-09-03T19:01:05.488Z,1.42
2022-09-03T19:04:03.215Z,1.40
2022-09-03T19:06:56.909Z,1.33
2022-09-03T19:09:57.712Z,1.50
2022-09-03T19:12:59.201Z,1.40
2022-09-03T19:15:50.107Z,2.05
2022-09-03T19:18:50.291Z,1.70
2022-09-03T19:21:45.255Z,1.38
2022-09-03T19:24:32.087Z,1.90
2022-09-03T19:27:51.816Z,1.50
2022-09-03T19:30:39.129Z,1.70
2022-09-03T19:33:33.028Z,1.75
2022-09-03T19:36:27.711Z,1.90
2022-09-03T19:39:26.099Z,1.70
2022-09-03T19:42:21.565Z,1.77
2022-09-03T19:45:21.724Z,1.50
2022-09-03T19:48:20.104Z,1.90
2022-09-03T19:51:15.429Z,1.85
2022-09-03T19:54:00.812Z,1.70
2022-09-03T19:56:47.834Z,2.38
2022-09-03T19:59:38.518Z,1.88
2022-09-03T20:02:24.322Z,1.80
2022-09-03T20:05:16.167Z,1.60
2022-09-03T20:08:02.930Z,2.10
2022-09-03T20:10:29.867Z,1.85
2022-09-03T20:13:05.144Z,2.13
2022-09-03T20:15:45.634Z,2.05
2022-09-03T20:18:22.273Z,2.25
2022-09-03T20:20:57.203Z,2.40
2022-09-03T20:23:31.437Z,2.40
2022-09-03T20:26:24.824Z,2.30
2022-09-03T20:29:24.613Z,2.40
2022-09-03T20:32:05.706Z,2.30
2022-09-03T20:34:44.375Z,2.30
2022-09-03T20:37:27.452Z,2.10
2022-09-03T20:40:12.707Z,2.22
2022-09-03T20:42:54.438Z,2.47
2022-09-03T20:45:25.799Z,2.50
2022-09-03T20:48:22.068Z,2.33
2022-09-03T20:50:57.841Z,2.42
2022-09-03T20:53:38.341Z,2.00
2022-09-03T20:56:16.214Z,2.55
2022-09-03T20:58:51.440Z,2.35
2022-09-03T21:01:26.675Z,2.40
2022-09-03T21:04:04.718Z,2.60
2022-09-03T21:06:37.967Z,2.42
2022-09-03T21:09:21.541Z,2.40
2022-09-03T21:11:58.431Z,2.40
2022-09-03T21:14:35.382Z,2.70
2022-09-03T21:17:25.092Z,2.22
2022-09-03T21:20:18.226Z,2.53
2022-09-03T21:23:00.478Z,2.23
2022-09-03T21:25:33.802Z,2.25
2022-09-03T21:28:06.477Z,2.40
2022-09-03T21:30:41.797Z,2.42
2022-09-03T21:33:14.750Z,2.30
2022-09-03T21:35:48.270Z,2.42
2022-09-03T21:38:21.366Z,2.50
2022-09-03T21:40:54.460Z,2.40
2022-09-03T21:43:30.197Z,2.40
2022-09-03T21:46:04.533Z,2.17
2022-09-03T21:48:36.366Z,2.45
2022-09-03T21:51:10.149Z,2.20
2022-09-03T21:53:45.421Z,2.38
2022-09-03T21:56:35.187Z,2.75
2022-09-03T21:59:09.526Z,2.45
2022-09-03T22:01:50.109Z,2.60
2022-09-03T22:04:18.309Z,2.33
2022-09-03T22:06:53.508Z,1.70
2022-09-03T22:09:28.639Z,1.92
2022-09-03T22:12:03.952Z,1.70
2022-09-03T22:14:39.140Z,2.22
2022-09-03T22:17:12.181Z,1.73
2022-09-03T22:19:40.185Z,1.60
2022-09-03T22:22:15.694Z,1.70
2022-09-03T22:24:49.854Z,1.80
2022-09-03T22:27:26.225Z,1.98
2022-09-03T22:30:03.167Z,1.85
2022-09-03T22:32:40.540Z,1.60
2022-09-03T22:35:24.073Z,1.50
2022-09-03T22:38:07.454Z,1.52
2022-09-03T22:40:40.947Z,1.80
2022-09-03T22:43:24.442Z,1.75
2022-09-03T22:46:05.039Z,1.50
2022-09-03T22:48:55.341Z,1.58
2022-09-03T22:51:23.742Z,1.60
2022-09-03T22:54:11.346Z,1.55
2022-09-03T22:56:42.079Z,1.50
2022-09-03T22:59:16.608Z,1.73
2022-09-03T23:01:49.482Z,1.63
2022-09-03T23:04:23.681Z,1.70
2022-09-03T23:06:57.717Z,1.33
2022-09-03T23:12:00.840Z,1.38
2022-09-03T23:14:34.627Z,1.48
2022-09-03T23:17:08.541Z,1.35
2022-09-03T23:19:41.557Z,1.30
2022-09-03T23:22:13.348Z,1.70
2022-09-03T23:24:49.217Z,1.42
2022-09-03T23:27:20.965Z,1.30
2022-09-03T23:29:51.968Z,1.60
2022-09-03T23:32:20.064Z,1.50
2022-09-03T23:34:47.909Z,1.52
2022-09-03T23:37:35.291Z,1.83
2022-09-03T23:40:37.909Z,1.58
2022-09-03T23:43:42.300Z,1.52
2022-09-03T23:46:18.684Z,1.58
2022-09-03T23:48:59.038Z,1.40
2022-09-03T23:51:37.949Z,1.58
2022-09-03T23:54:14.056Z,1.50
2022-09-03T23:56:57.801Z,1.40
2022-09-03T23:59:36.169Z,1.60
